createdAt,value
2018-12-19T00:00:50.061Z,98842.41
2018-12-19T00:05:56.321Z,98837.91
2018-12-19T00:11:01.870Z,98714.48
2018-12-19T00:16:06.180Z,98863.75
2018-12-19T00:21:10.346Z,98890.97
2018-12-19T00:26:14.239Z,98949.79
2018-12-19T00:31:20.010Z,98803.61
2018-12-19T00:36:25.968Z,98853.95
2018-12-19T00:41:30.210Z,98879.83
2018-12-19T00:46:34.408Z,98817.21
2018-12-19T00:51:38.886Z,98932.47
2018-12-19T00:56:42.710Z,98871.30
2018-12-19T01:01:46.624Z,98783.61
2018-12-19T01:06:50.841Z,98820.73
2018-12-19T01:11:54.616Z,98796.06
2018-12-19T01:16:58.493Z,98801.07
2018-12-19T01:22:02.637Z,99038.47
2018-12-19T01:27:06.558Z,98794.17
2018-12-19T01:32:10.553Z,98910.87
2018-12-19T01:37:14.500Z,98891.59
2018-12-19T01:42:18.433Z,98821.42
2018-12-19T01:47:22.668Z,98859.81
2018-12-19T01:52:26.689Z,98810.52
2018-12-19T01:57:30.581Z,98910.70
2018-12-19T02:02:34.427Z,98951.92
2018-12-19T02:07:38.350Z,98894.22
2018-12-19T02:12:42.287Z,98873.53
2018-12-19T02:17:47.292Z,98940.61
2018-12-19T02:22:51.396Z,98877.39
2018-12-19T02:27:55.336Z,98809.70
2018-12-19T02:32:59.169Z,98807.52
2018-12-19T02:38:02.933Z,98974.48
2018-12-19T02:43:07.020Z,99031.73
2018-12-19T02:48:10.918Z,98788.89
2018-12-19T02:53:14.889Z,98826.52
2018-12-19T02:58:18.822Z,98829.56
2018-12-19T03:03:22.638Z,98852.41
2018-12-19T03:08:26.655Z,98809.48
2018-12-19T03:13:31.048Z,98880.92
2018-12-19T03:18:35.090Z,98928.08
2018-12-19T03:23:39.402Z,98875.43
2018-12-19T03:28:43.095Z,98811.77
2018-12-19T03:33:47.041Z,98870.09
2018-12-19T03:38:50.852Z,98873.58
2018-12-19T03:43:54.694Z,98852.97
2018-12-19T03:48:58.496Z,98925.07
2018-12-19T03:54:02.200Z,98860.44
2018-12-19T03:59:05.913Z,98991.02
2018-12-19T04:04:09.675Z,98897.57
2018-12-19T04:09:13.539Z,98908.05
2018-12-19T04:14:17.353Z,98936.12
2018-12-19T04:19:21.374Z,98921.05
2018-12-19T04:24:27.391Z,98934.23
2018-12-19T04:29:31.475Z,98932.91
2018-12-19T04:34:35.409Z,99000.36
2018-12-19T04:39:39.299Z,98996.20
2018-12-19T04:44:43.169Z,98984.88
2018-12-19T04:49:47.229Z,98935.08
2018-12-19T04:54:51.242Z,98947.81
2018-12-19T04:59:55.009Z,99020.34
2018-12-19T05:04:58.789Z,98986.86
2018-12-19T05:10:02.934Z,99023.50
2018-12-19T05:15:06.866Z,99017.63
2018-12-19T05:20:11.758Z,99019.44
2018-12-19T05:25:15.716Z,98983.91
2018-12-19T05:30:21.150Z,98971.03
2018-12-19T05:35:24.972Z,98973.83
2018-12-19T05:40:28.873Z,98975.31
2018-12-19T05:45:32.702Z,99031.50
2018-12-19T05:50:37.030Z,99023.78
2018-12-19T05:55:40.811Z,99044.09
2018-12-19T06:00:44.667Z,98976.85
2018-12-19T06:05:50.613Z,98970.06
2018-12-19T06:10:54.452Z,98978.86
2018-12-19T06:15:58.318Z,99038.86
2018-12-19T06:21:02.561Z,99005.02
2018-12-19T06:26:06.527Z,98985.95
2018-12-19T06:31:11.524Z,99015.72
2018-12-19T06:36:15.698Z,98967.52
2018-12-19T06:41:19.610Z,99006.62
2018-12-19T06:46:23.522Z,99059.51
2018-12-19T06:51:27.629Z,99019.70
2018-12-19T06:56:31.403Z,99053.41
2018-12-19T07:01:35.339Z,99055.93
2018-12-19T07:06:39.079Z,99048.67
2018-12-19T07:11:42.854Z,99073.51
2018-12-19T07:16:46.570Z,99045.23
2018-12-19T07:21:50.473Z,99070.06
2018-12-19T07:26:54.402Z,99082.79
2018-12-19T07:31:58.158Z,99109.08
2018-12-19T07:37:02.045Z,99099.03
2018-12-19T07:42:06.416Z,99120.64
2018-12-19T07:47:10.155Z,99107.69
2018-12-19T07:52:14.033Z,99108.30
2018-12-19T07:57:17.932Z,99095.80
2018-12-19T08:02:21.730Z,99101.69
2018-12-19T08:07:25.489Z,99084.17
2018-12-19T08:12:35.790Z,99114.20
2018-12-19T08:17:35.495Z,99115.09
2018-12-19T08:22:39.376Z,99119.73
2018-12-19T08:27:43.393Z,99140.13
2018-12-19T08:32:47.168Z,99113.45
2018-12-19T08:37:50.957Z,99138.34
2018-12-19T08:42:54.744Z,99120.27
2018-12-19T08:47:58.471Z,99120.16
2018-12-19T08:53:02.309Z,99122.92
2018-12-19T08:58:06.303Z,99106.80
2018-12-19T09:03:10.934Z,99089.02
2018-12-19T09:08:14.905Z,99095.31
2018-12-19T09:13:18.761Z,99119.18
2018-12-19T09:18:22.745Z,99103.58
2018-12-19T09:23:26.638Z,99087.58
2018-12-19T09:28:31.526Z,99091.29
2018-12-19T09:33:35.493Z,99089.13
2018-12-19T09:38:41.069Z,99092.73
2018-12-19T09:43:44.872Z,99108.73
2018-12-19T09:48:48.663Z,99115.24
2018-12-19T09:53:52.430Z,99076.91
2018-12-19T09:58:56.265Z,99095.17
2018-12-19T10:03:59.969Z,99097.24
2018-12-19T10:09:07.632Z,99088.95
2018-12-19T10:14:13.544Z,99112.41
2018-12-19T10:19:17.316Z,99103.89
2018-12-19T10:24:25.820Z,99102.05
2018-12-19T10:29:29.750Z,99089.03
2018-12-19T10:34:33.639Z,99109.55
2018-12-19T10:39:37.621Z,99098.22
2018-12-19T10:44:41.631Z,99100.77
2018-12-19T10:49:45.721Z,99158.91
2018-12-19T10:54:49.449Z,99116.87
2018-12-19T10:59:53.292Z,99097.66
2018-12-19T11:04:57.290Z,99097.53
2018-12-19T11:10:01.021Z,99100.21
2018-12-19T11:15:08.462Z,99093.37
2018-12-19T11:20:12.151Z,99096.25
2018-12-19T11:25:16.015Z,99089.28
2018-12-19T11:30:19.802Z,99096.98
2018-12-19T11:35:23.599Z,99093.44
2018-12-19T11:40:27.403Z,99097.46
2018-12-19T11:45:31.348Z,99114.76
2018-12-19T11:50:35.322Z,99108.56
2018-12-19T11:55:39.138Z,99117.03
2018-12-19T12:00:42.899Z,99118.13
2018-12-19T12:05:46.741Z,99123.25
2018-12-19T12:10:50.719Z,99108.67
2018-12-19T12:15:54.439Z,99110.48
2018-12-19T12:20:58.526Z,99112.67
2018-12-19T12:26:02.542Z,99101.90
2018-12-19T12:31:06.604Z,99111.53
2018-12-19T12:36:10.540Z,99104.78
2018-12-19T12:41:15.049Z,99129.20
2018-12-19T12:46:19.320Z,99117.38
2018-12-19T12:51:23.308Z,99122.47
2018-12-19T12:56:27.270Z,99125.55
2018-12-19T13:01:31.297Z,99138.47
2018-12-19T13:06:35.125Z,99139.44
2018-12-19T13:11:39.359Z,99131.20
2018-12-19T13:16:43.209Z,99132.41
2018-12-19T13:21:47.128Z,99139.31
2018-12-19T13:26:51.149Z,99146.80
2018-12-19T13:31:55.369Z,99150.32
2018-12-19T13:36:59.605Z,99159.03
2018-12-19T13:42:05.719Z,99168.80
2018-12-19T13:47:09.253Z,99161.51
2018-12-19T13:52:13.254Z,99162.68
2018-12-19T13:57:17.226Z,99170.47
2018-12-19T14:02:21.390Z,99173.82
2018-12-19T14:07:25.123Z,99177.72
2018-12-19T14:12:29.283Z,99184.38
2018-12-19T14:17:33.142Z,99190.24
2018-12-19T14:22:36.992Z,99186.86
2018-12-19T14:27:40.862Z,99193.08
2018-12-19T14:32:44.928Z,99191.63
2018-12-19T14:37:48.795Z,99197.95
2018-12-19T14:42:52.672Z,99195.41
2018-12-19T14:47:56.590Z,99191.09
2018-12-19T14:53:00.524Z,99188.27
2018-12-19T14:58:04.696Z,99199.13
2018-12-19T15:03:08.699Z,99212.88
2018-12-19T15:08:12.704Z,99208.93
2018-12-19T15:13:16.678Z,99207.89
2018-12-19T15:18:20.510Z,99211.72
2018-12-19T15:23:24.328Z,99214.06
2018-12-19T15:28:28.097Z,99229.66
2018-12-19T15:33:32.089Z,99239.06
2018-12-19T15:38:36.110Z,99248.81
2018-12-19T15:43:40.045Z,99239.88
2018-12-19T15:48:43.818Z,99240.70
2018-12-19T15:53:47.689Z,99240.93
2018-12-19T15:58:51.515Z,99251.02
2018-12-19T16:03:55.413Z,99267.52
2018-12-19T16:08:59.231Z,99244.02
2018-12-19T16:14:03.293Z,99235.80
2018-12-19T16:19:10.831Z,99250.28
2018-12-19T16:24:14.965Z,99248.09
2018-12-19T16:29:18.857Z,99246.63
2018-12-19T16:34:23.562Z,99245.80
2018-12-19T16:39:27.260Z,99256.59
2018-12-19T16:44:31.623Z,99263.06
2018-12-19T16:49:35.583Z,99260.77
2018-12-19T16:54:39.634Z,99262.72
2018-12-19T16:59:43.479Z,99273.31
2018-12-19T17:04:47.717Z,99271.59
2018-12-19T17:09:51.857Z,99250.55
2018-12-19T17:14:55.718Z,99262.86
2018-12-19T17:19:59.879Z,99255.94
2018-12-19T17:25:03.738Z,99258.61
2018-12-19T17:30:07.632Z,99244.06
2018-12-19T17:35:16.445Z,99243.67
2018-12-19T17:40:20.483Z,99252.58
2018-12-19T17:45:24.867Z,99249.88
2018-12-19T17:50:28.834Z,99255.36
2018-12-19T17:55:33.719Z,99253.28
2018-12-19T18:00:37.603Z,99250.05
2018-12-19T18:05:43.293Z,99252.35
2018-12-19T18:10:47.105Z,99247.42
2018-12-19T18:15:52.169Z,99258.65
2018-12-19T18:20:56.050Z,99261.00
2018-12-19T18:25:59.930Z,99262.39
2018-12-19T18:31:04.022Z,99270.84
2018-12-19T18:36:07.922Z,99271.54
2018-12-19T18:41:11.883Z,99269.39
2018-12-19T18:46:15.826Z,99287.05
2018-12-19T18:51:20.031Z,99290.09
2018-12-19T18:56:23.817Z,99295.24
2018-12-19T19:01:29.772Z,99311.03
2018-12-19T19:06:34.582Z,99324.33
2018-12-19T19:11:38.623Z,99313.05
2018-12-19T19:16:42.385Z,99314.58
2018-12-19T19:21:46.280Z,99307.69
2018-12-19T19:26:53.473Z,99306.33
2018-12-19T19:31:57.725Z,99308.82
2018-12-19T19:37:01.611Z,99312.64
2018-12-19T19:42:05.722Z,99314.01
2018-12-19T19:47:11.351Z,99307.56
2018-12-19T19:52:16.743Z,99326.43
2018-12-19T19:57:20.731Z,99334.62
2018-12-19T20:02:24.500Z,99339.02
2018-12-19T20:07:30.635Z,99346.05
2018-12-19T20:12:34.823Z,99354.13
2018-12-19T20:17:38.639Z,99376.27
2018-12-19T20:22:43.656Z,99363.86
2018-12-19T20:27:48.529Z,99358.32
2018-12-19T20:32:52.764Z,99365.72
2018-12-19T20:37:56.749Z,99356.27
2018-12-19T20:43:06.394Z,99358.02
2018-12-19T20:48:06.282Z,99364.35
2018-12-19T20:53:11.676Z,99356.66
2018-12-19T20:58:15.490Z,99353.09
2018-12-19T21:03:19.238Z,99351.60
2018-12-19T21:08:25.818Z,99357.62
2018-12-19T21:13:30.254Z,99359.45
2018-12-19T21:18:45.645Z,99351.48
2018-12-19T21:23:50.095Z,99340.48
2018-12-19T21:28:54.044Z,99338.27
2018-12-19T21:33:57.904Z,99338.33
2018-12-19T21:39:06.376Z,99338.16
2018-12-19T21:44:11.310Z,99334.77
2018-12-19T21:49:15.105Z,99339.21
2018-12-19T21:54:18.964Z,99333.73
2018-12-19T21:59:23.857Z,99335.08
2018-12-19T22:04:27.666Z,99322.25
2018-12-19T22:09:33.521Z,99322.30
2018-12-19T22:14:37.619Z,99318.06
2018-12-19T22:19:41.412Z,99323.23
2018-12-19T22:24:45.265Z,99315.63
2018-12-19T22:29:49.221Z,99308.89
2018-12-19T22:34:53.027Z,99310.05
2018-12-19T22:39:57.138Z,99305.28
2018-12-19T22:45:01.334Z,99309.08
2018-12-19T22:50:06.231Z,99311.43
2018-12-19T22:55:10.068Z,99300.32
2018-12-19T23:00:17.329Z,99305.77
2018-12-19T23:05:28.789Z,99296.02
2018-12-19T23:10:32.757Z,99294.23
2018-12-19T23:15:36.527Z,99298.53
2018-12-19T23:20:46.834Z,99291.80
2018-12-19T23:25:56.803Z,99295.91
2018-12-19T23:31:02.814Z,99298.33
2018-12-19T23:36:06.717Z,99303.44
2018-12-19T23:41:10.694Z,99299.77
2018-12-19T23:46:14.935Z,99293.81
2018-12-19T23:51:19.006Z,99298.87
2018-12-19T23:56:22.905Z,99299.17
